sensor_id;sensor_type;location;lat;lon;timestamp;pressure;altitude;pressure_sealevel;temperature;humidity
61939;BME280;47897;50.322;18.892;2022-09-13T00:00:50;57741.82;;;-145.38;70.75
61939;BME280;47897;50.322;18.892;2022-09-13T00:03:19;57761.37;;;-145.38;70.74
61939;BME280;47897;50.322;18.892;2022-09-13T00:05:47;57757.54;;;-145.38;70.82
61939;BME280;47897;50.322;18.892;2022-09-13T00:08:14;57744.79;;;-145.38;70.71
61939;BME280;47897;50.322;18.892;2022-09-13T00:10:43;57752.87;;;-145.38;70.73
61939;BME280;47897;50.322;18.892;2022-09-13T00:13:11;57746.92;;;-145.38;70.70
61939;BME280;47897;50.322;18.892;2022-09-13T00:15:47;57750.32;;;-145.38;70.50
61939;BME280;47897;50.322;18.892;2022-09-13T00:18:16;57752.87;;;-145.38;70.33
61939;BME280;47897;50.322;18.892;2022-09-13T00:20:44;57738.84;;;-145.38;70.72
61939;BME280;47897;50.322;18.892;2022-09-13T00:23:11;57744.79;;;-145.38;70.80
61939;BME280;47897;50.322;18.892;2022-09-13T00:25:39;57752.87;;;-145.38;70.65
61939;BME280;47897;50.322;18.892;2022-09-13T00:28:06;57742.67;;;-145.38;70.68
61939;BME280;47897;50.322;18.892;2022-09-13T00:30:33;57752.87;;;-145.38;70.60
61939;BME280;47897;50.322;18.892;2022-09-13T00:33:00;57726.52;;;-145.38;70.49
61939;BME280;47897;50.322;18.892;2022-09-13T00:35:30;57743.09;;;-145.38;70.72
61939;BME280;47897;50.322;18.892;2022-09-13T00:38:00;57728.22;;;-145.38;70.70
61939;BME280;47897;50.322;18.892;2022-09-13T00:40:28;57758.81;;;-145.38;70.71
61939;BME280;47897;50.322;18.892;2022-09-13T00:42:56;57746.92;;;-145.38;70.73
61939;BME280;47897;50.322;18.892;2022-09-13T00:45:23;57754.57;;;-145.38;70.66
61939;BME280;47897;50.322;18.892;2022-09-13T00:47:57;57766.46;;;-145.38;70.64
61939;BME280;47897;50.322;18.892;2022-09-13T00:50:42;57742.67;;;-145.38;70.64
61939;BME280;47897;50.322;18.892;2022-09-13T00:53:15;57754.99;;;-145.38;70.62
61939;BME280;47897;50.322;18.892;2022-09-13T00:56:02;57751.17;;;-145.38;70.60
61939;BME280;47897;50.322;18.892;2022-09-13T00:58:35;57740.54;;;-145.38;70.53
61939;BME280;47897;50.322;18.892;2022-09-13T01:01:07;57761.79;;;-145.38;70.47
61939;BME280;47897;50.322;18.892;2022-09-13T01:03:36;57738.84;;;-145.38;70.45
61939;BME280;47897;50.322;18.892;2022-09-13T01:06:16;57749.89;;;-145.38;70.50
61939;BME280;47897;50.322;18.892;2022-09-13T01:08:48;57767.74;;;-145.38;70.49
61939;BME280;47897;50.322;18.892;2022-09-13T01:11:41;57729.07;;;-145.38;70.43
61939;BME280;47897;50.322;18.892;2022-09-13T01:14:07;57745.22;;;-145.38;70.30
61939;BME280;47897;50.322;18.892;2022-09-13T01:16:35;57759.66;;;-145.38;70.44
61939;BME280;47897;50.322;18.892;2022-09-13T01:19:02;57733.75;;;-145.38;70.48
61939;BME280;47897;50.322;18.892;2022-09-13T01:38:01;57718.02;;;-145.38;70.37
61939;BME280;47897;50.322;18.892;2022-09-13T01:43:22;57767.31;;;-145.38;70.32
61939;BME280;47897;50.322;18.892;2022-09-13T01:51:44;57739.70;;;-145.38;70.29
61939;BME280;47897;50.322;18.892;2022-09-13T01:56:54;57747.77;;;-145.38;70.42
61939;BME280;47897;50.322;18.892;2022-09-13T02:04:55;57750.31;;;-145.38;70.49
61939;BME280;47897;50.322;18.892;2022-09-13T02:07:30;57748.62;;;-145.38;70.51
61939;BME280;47897;50.322;18.892;2022-09-13T02:10:05;57735.45;;;-145.38;70.53
61939;BME280;47897;50.322;18.892;2022-09-13T02:12:35;57749.47;;;-145.38;70.63
61939;BME280;47897;50.322;18.892;2022-09-13T02:15:24;57749.47;;;-145.38;70.65
61939;BME280;47897;50.322;18.892;2022-09-13T02:20:32;57750.74;;;-145.38;70.73
61939;BME280;47897;50.322;18.892;2022-09-13T02:23:05;57752.87;;;-145.38;70.75
61939;BME280;47897;50.322;18.892;2022-09-13T02:25:36;57751.17;;;-145.38;70.78
61939;BME280;47897;50.322;18.892;2022-09-13T02:28:08;57749.47;;;-145.38;70.79
61939;BME280;47897;50.322;18.892;2022-09-13T02:30:37;57747.77;;;-145.38;70.79
61939;BME280;47897;50.322;18.892;2022-09-13T02:38:22;57756.27;;;-145.38;70.64
61939;BME280;47897;50.322;18.892;2022-09-13T02:40:56;57740.97;;;-145.38;70.73
61939;BME280;47897;50.322;18.892;2022-09-13T02:43:33;57754.14;;;-145.38;70.72
61939;BME280;47897;50.322;18.892;2022-09-13T02:51:29;57751.17;;;-145.38;70.87
61939;BME280;47897;50.322;18.892;2022-09-13T02:56:53;57739.70;;;-145.38;71.11
61939;BME280;47897;50.322;18.892;2022-09-13T02:59:23;57730.77;;;-145.38;71.17
61939;BME280;47897;50.322;18.892;2022-09-13T03:02:16;57737.57;;;-145.38;71.11
61939;BME280;47897;50.322;18.892;2022-09-13T03:04:44;57735.45;;;-145.38;71.23
61939;BME280;47897;50.322;18.892;2022-09-13T03:07:12;57736.29;;;-145.38;71.28
61939;BME280;47897;50.322;18.892;2022-09-13T03:10:07;57730.77;;;-145.38;71.18
61939;BME280;47897;50.322;18.892;2022-09-13T03:24:42;57754.56;;;-145.38;71.34
61939;BME280;47897;50.322;18.892;2022-09-13T03:32:23;57752.87;;;-145.38;71.73
61939;BME280;47897;50.322;18.892;2022-09-13T03:40:40;57750.32;;;-145.38;71.47
61939;BME280;47897;50.322;18.892;2022-09-13T03:45:43;57739.27;;;-145.38;71.42
61939;BME280;47897;50.322;18.892;2022-09-13T03:48:11;57744.37;;;-145.38;71.49
61939;BME280;47897;50.322;18.892;2022-09-13T03:50:40;57745.22;;;-145.38;71.59
61939;BME280;47897;50.322;18.892;2022-09-13T03:53:11;57758.39;;;-145.38;71.76
61939;BME280;47897;50.322;18.892;2022-09-13T03:55:40;57737.57;;;-145.38;71.74
61939;BME280;47897;50.322;18.892;2022-09-13T03:58:13;57735.02;;;-145.38;71.89
61939;BME280;47897;50.322;18.892;2022-09-13T04:00:42;57749.89;;;-145.38;71.77
61939;BME280;47897;50.322;18.892;2022-09-13T04:03:11;57734.59;;;-145.38;71.72
61939;BME280;47897;50.322;18.892;2022-09-13T04:05:39;57748.62;;;-145.38;71.71
61939;BME280;47897;50.322;18.892;2022-09-13T04:08:06;57745.22;;;-145.38;71.92
61939;BME280;47897;50.322;18.892;2022-09-13T04:10:35;57740.54;;;-145.38;72.03
61939;BME280;47897;50.322;18.892;2022-09-13T04:13:03;57747.77;;;-145.38;72.24
61939;BME280;47897;50.322;18.892;2022-09-13T04:15:31;57735.45;;;-145.38;72.29
61939;BME280;47897;50.322;18.892;2022-09-13T04:17:59;57730.34;;;-145.38;72.56
61939;BME280;47897;50.322;18.892;2022-09-13T04:20:26;57730.77;;;-145.38;72.59
61939;BME280;47897;50.322;18.892;2022-09-13T04:22:55;57758.39;;;-145.38;72.66
61939;BME280;47897;50.322;18.892;2022-09-13T04:25:23;57741.39;;;-145.38;72.62
61939;BME280;47897;50.322;18.892;2022-09-13T04:27:54;57747.34;;;-145.38;72.68
61939;BME280;47897;50.322;18.892;2022-09-13T04:30:21;57726.95;;;-145.38;72.70
61939;BME280;47897;50.322;18.892;2022-09-13T04:32:49;57737.99;;;-145.38;72.61
61939;BME280;47897;50.322;18.892;2022-09-13T04:35:16;57743.52;;;-145.38;72.54
61939;BME280;47897;50.322;18.892;2022-09-13T04:37:45;57741.82;;;-145.38;72.72
61939;BME280;47897;50.322;18.892;2022-09-13T04:40:12;57736.29;;;-145.38;72.96
61939;BME280;47897;50.322;18.892;2022-09-13T04:42:40;57734.59;;;-145.38;73.12
61939;BME280;47897;50.322;18.892;2022-09-13T04:45:07;57745.64;;;-145.38;72.98
61939;BME280;47897;50.322;18.892;2022-09-13T04:47:34;57733.75;;;-145.38;73.01
61939;BME280;47897;50.322;18.892;2022-09-13T04:50:01;57738.42;;;-145.38;73.09
61939;BME280;47897;50.322;18.892;2022-09-13T04:52:28;57748.20;;;-145.38;73.12
61939;BME280;47897;50.322;18.892;2022-09-13T04:54:55;57722.70;;;-145.38;73.29
61939;BME280;47897;50.322;18.892;2022-09-13T04:57:26;57741.82;;;-145.38;73.62
61939;BME280;47897;50.322;18.892;2022-09-13T04:59:54;57731.62;;;-145.38;73.67
61939;BME280;47897;50.322;18.892;2022-09-13T05:02:21;57735.02;;;-145.38;74.04
61939;BME280;47897;50.322;18.892;2022-09-13T05:04:48;57735.02;;;-145.38;74.26
61939;BME280;47897;50.322;18.892;2022-09-13T05:07:15;57745.64;;;-145.38;74.40
61939;BME280;47897;50.322;18.892;2022-09-13T05:09:42;57738.42;;;-145.38;74.74
61939;BME280;47897;50.322;18.892;2022-09-13T05:12:09;57738.84;;;-145.38;74.76
61939;BME280;47897;50.322;18.892;2022-09-13T05:14:37;57739.27;;;-145.38;74.96
61939;BME280;47897;50.322;18.892;2022-09-13T05:17:04;57743.95;;;-145.38;75.03
61939;BME280;47897;50.322;18.892;2022-09-13T05:19:31;57749.89;;;-145.38;75.43
61939;BME280;47897;50.322;18.892;2022-09-13T05:21:58;57752.45;;;-145.38;75.39
61939;BME280;47897;50.322;18.892;2022-09-13T05:24:25;57752.02;;;-145.38;75.62
61939;BME280;47897;50.322;18.892;2022-09-13T05:26:52;57734.17;;;-145.38;75.88
61939;BME280;47897;50.322;18.892;2022-09-13T05:29:19;57759.67;;;-145.38;76.15
61939;BME280;47897;50.322;18.892;2022-09-13T05:31:46;57759.24;;;-145.38;76.57
61939;BME280;47897;50.322;18.892;2022-09-13T05:34:14;57753.29;;;-145.38;76.76
61939;BME280;47897;50.322;18.892;2022-09-13T05:36:43;57746.92;;;-145.38;77.07
61939;BME280;47897;50.322;18.892;2022-09-13T05:39:14;57755.42;;;-145.38;77.41
61939;BME280;47897;50.322;18.892;2022-09-13T05:41:44;57752.87;;;-145.38;77.74
61939;BME280;47897;50.322;18.892;2022-09-13T05:44:11;57765.19;;;-145.38;77.75
61939;BME280;47897;50.322;18.892;2022-09-13T05:46:38;57746.92;;;-145.38;78.30
61939;BME280;47897;50.322;18.892;2022-09-13T05:49:05;57746.92;;;-145.38;78.90
61939;BME280;47897;50.322;18.892;2022-09-13T05:51:32;57757.54;;;-145.38;79.27
61939;BME280;47897;50.322;18.892;2022-09-13T05:54:00;57768.17;;;-145.38;79.66
61939;BME280;47897;50.322;18.892;2022-09-13T05:56:28;57758.81;;;-145.38;79.72
61939;BME280;47897;50.322;18.892;2022-09-13T05:58:57;57753.29;;;-145.38;80.00
61939;BME280;47897;50.322;18.892;2022-09-13T06:01:27;57763.92;;;-145.38;80.38
61939;BME280;47897;50.322;18.892;2022-09-13T06:03:58;57751.59;;;-145.38;80.88
61939;BME280;47897;50.322;18.892;2022-09-13T06:06:25;57759.67;;;-145.38;81.40
61939;BME280;47897;50.322;18.892;2022-09-13T06:08:54;57782.61;;;-145.38;82.09
61939;BME280;47897;50.322;18.892;2022-09-13T06:11:22;57782.19;;;-145.38;82.73
61939;BME280;47897;50.322;18.892;2022-09-13T06:13:50;57766.89;;;-145.38;82.79
61939;BME280;47897;50.322;18.892;2022-09-13T06:16:17;57770.71;;;-145.38;83.05
61939;BME280;47897;50.322;18.892;2022-09-13T06:18:44;57776.66;;;-145.38;83.74
61939;BME280;47897;50.322;18.892;2022-09-13T06:21:16;57775.81;;;-145.38;83.32
61939;BME280;47897;50.322;18.892;2022-09-13T06:23:48;57774.11;;;-145.38;82.72
61939;BME280;47897;50.322;18.892;2022-09-13T06:26:19;57773.69;;;-145.38;82.24
61939;BME280;47897;50.322;18.892;2022-09-13T06:28:51;57793.24;;;-145.38;81.68
61939;BME280;47897;50.322;18.892;2022-09-13T06:31:20;57778.36;;;-145.38;81.12
61939;BME280;47897;50.322;18.892;2022-09-13T06:33:48;57782.19;;;-145.38;81.07
61939;BME280;47897;50.322;18.892;2022-09-13T06:36:17;57770.71;;;-145.38;80.69
61939;BME280;47897;50.322;18.892;2022-09-13T06:38:46;57786.01;;;-145.38;80.15
61939;BME280;47897;50.322;18.892;2022-09-13T06:41:22;57780.49;;;-145.38;79.89
61939;BME280;47897;50.322;18.892;2022-09-13T06:43:54;57770.29;;;-145.38;79.79
61939;BME280;47897;50.322;18.892;2022-09-13T06:46:23;57785.16;;;-145.38;79.58
61939;BME280;47897;50.322;18.892;2022-09-13T06:48:51;57780.06;;;-145.38;79.03
61939;BME280;47897;50.322;18.892;2022-09-13T06:51:21;57776.66;;;-145.38;78.78
61939;BME280;47897;50.322;18.892;2022-09-13T06:53:49;57769.01;;;-145.38;78.60
61939;BME280;47897;50.322;18.892;2022-09-13T06:56:23;57762.21;;;-145.38;78.06
61939;BME280;47897;50.322;18.892;2022-09-13T06:58:53;57775.81;;;-145.38;77.57
61939;BME280;47897;50.322;18.892;2022-09-13T07:01:27;57772.84;;;-145.38;77.71
61939;BME280;47897;50.322;18.892;2022-09-13T07:04:03;57788.99;;;-145.38;77.55
61939;BME280;47897;50.322;18.892;2022-09-13T07:06:33;57775.82;;;-145.38;77.49
61939;BME280;47897;50.322;18.892;2022-09-13T07:09:02;57780.91;;;-145.38;76.93
61939;BME280;47897;50.322;18.892;2022-09-13T07:11:35;57769.02;;;-145.38;76.71
61939;BME280;47897;50.322;18.892;2022-09-13T07:14:03;57778.36;;;-145.38;76.47
61939;BME280;47897;50.322;18.892;2022-09-13T07:16:32;57782.61;;;-145.38;76.21
61939;BME280;47897;50.322;18.892;2022-09-13T07:19:04;57772.41;;;-145.38;75.72
61939;BME280;47897;50.322;18.892;2022-09-13T07:21:33;57787.29;;;-145.38;75.45
61939;BME280;47897;50.322;18.892;2022-09-13T07:24:02;57781.34;;;-145.38;74.94
61939;BME280;47897;50.322;18.892;2022-09-13T07:26:29;57773.69;;;-145.38;74.74
61939;BME280;47897;50.322;18.892;2022-09-13T07:28:59;57775.81;;;-145.38;74.32
61939;BME280;47897;50.322;18.892;2022-09-13T07:31:34;57788.56;;;-145.38;73.73
61939;BME280;47897;50.322;18.892;2022-09-13T07:34:03;57765.62;;;-145.38;73.81
61939;BME280;47897;50.322;18.892;2022-09-13T07:36:32;57795.36;;;-145.38;73.23
61939;BME280;47897;50.322;18.892;2022-09-13T07:38:59;57772.42;;;-145.38;72.96
61939;BME280;47897;50.322;18.892;2022-09-13T07:41:29;57782.19;;;-145.38;73.01
61939;BME280;47897;50.322;18.892;2022-09-13T07:43:57;57778.79;;;-145.38;72.59
61939;BME280;47897;50.322;18.892;2022-09-13T07:46:26;57776.66;;;-145.38;72.43
61939;BME280;47897;50.322;18.892;2022-09-13T07:48:55;57771.56;;;-145.38;72.23
61939;BME280;47897;50.322;18.892;2022-09-13T07:51:27;57760.51;;;-145.38;71.73
61939;BME280;47897;50.322;18.892;2022-09-13T07:53:57;57774.11;;;-145.38;71.78
61939;BME280;47897;50.322;18.892;2022-09-13T07:56:30;57771.14;;;-145.38;71.44
61939;BME280;47897;50.322;18.892;2022-09-13T07:58:59;57771.56;;;-145.38;70.80
61939;BME280;47897;50.322;18.892;2022-09-13T08:01:44;57774.11;;;-145.38;70.39
61939;BME280;47897;50.322;18.892;2022-09-13T08:04:13;57782.19;;;-145.38;69.70
61939;BME280;47897;50.322;18.892;2022-09-13T08:06:43;57765.62;;;-145.38;68.72
61939;BME280;47897;50.322;18.892;2022-09-13T08:09:11;57779.64;;;-145.38;67.67
61939;BME280;47897;50.322;18.892;2022-09-13T08:11:41;57788.56;;;-145.38;68.36
61939;BME280;47897;50.322;18.892;2022-09-13T08:14:11;57771.99;;;-145.38;68.34
61939;BME280;47897;50.322;18.892;2022-09-13T08:16:39;57763.49;;;-145.38;68.31
61939;BME280;47897;50.322;18.892;2022-09-13T08:19:11;57763.91;;;-145.38;67.82
61939;BME280;47897;50.322;18.892;2022-09-13T08:21:39;57761.37;;;-145.38;67.48
61939;BME280;47897;50.322;18.892;2022-09-13T08:24:11;57773.69;;;-145.38;66.96
61939;BME280;47897;50.322;18.892;2022-09-13T08:26:39;57766.46;;;-145.38;67.05
61939;BME280;47897;50.322;18.892;2022-09-13T08:29:06;57787.29;;;-145.38;66.40
61939;BME280;47897;50.322;18.892;2022-09-13T08:31:33;57763.92;;;-145.38;65.78
61939;BME280;47897;50.322;18.892;2022-09-13T08:34:00;57763.49;;;-145.38;65.54
61939;BME280;47897;50.322;18.892;2022-09-13T08:36:28;57746.92;;;-145.38;65.60
61939;BME280;47897;50.322;18.892;2022-09-13T08:38:57;57746.07;;;-145.38;65.15
61939;BME280;47897;50.322;18.892;2022-09-13T08:46:45;57770.71;;;-145.38;63.79
61939;BME280;47897;50.322;18.892;2022-09-13T08:49:43;57753.29;;;-145.38;63.32
61939;BME280;47897;50.322;18.892;2022-09-13T08:54:42;57757.54;;;-145.38;62.38
61939;BME280;47897;50.322;18.892;2022-09-13T08:57:21;57768.59;;;-145.38;62.40
61939;BME280;47897;50.322;18.892;2022-09-13T09:00:03;57758.81;;;-145.38;60.68
61939;BME280;47897;50.322;18.892;2022-09-13T09:02:56;57761.79;;;-145.38;61.09
61939;BME280;47897;50.322;18.892;2022-09-13T09:05:45;57749.04;;;-145.38;61.94
61939;BME280;47897;50.322;18.892;2022-09-13T09:10:50;57747.34;;;-145.38;60.62
61939;BME280;47897;50.322;18.892;2022-09-13T09:13:31;57754.99;;;-145.38;60.03
61939;BME280;47897;50.322;18.892;2022-09-13T09:16:32;57743.95;;;-145.38;60.00
61939;BME280;47897;50.322;18.892;2022-09-13T09:19:13;57754.99;;;-145.38;59.57
61939;BME280;47897;50.322;18.892;2022-09-13T09:21:44;57758.81;;;-145.38;59.70
61939;BME280;47897;50.322;18.892;2022-09-13T09:24:20;57748.20;;;-145.38;58.94
61939;BME280;47897;50.322;18.892;2022-09-13T09:26:49;57746.92;;;-145.38;59.22
61939;BME280;47897;50.322;18.892;2022-09-13T09:29:23;57749.47;;;-145.38;58.78
61939;BME280;47897;50.322;18.892;2022-09-13T09:37:21;57766.89;;;-145.38;58.11
61939;BME280;47897;50.322;18.892;2022-09-13T09:40:02;57755.42;;;-145.38;58.52
61939;BME280;47897;50.322;18.892;2022-09-13T09:45:26;57747.34;;;-145.38;57.72
61939;BME280;47897;50.322;18.892;2022-09-13T09:47:54;57748.20;;;-145.38;57.95
61939;BME280;47897;50.322;18.892;2022-09-13T09:50:25;57760.09;;;-145.38;57.89
61939;BME280;47897;50.322;18.892;2022-09-13T09:53:06;57729.92;;;-145.38;56.97
61939;BME280;47897;50.322;18.892;2022-09-13T09:56:11;57746.06;;;-145.38;57.40
61939;BME280;47897;50.322;18.892;2022-09-13T09:58:43;57738.84;;;-145.38;56.66
61939;BME280;47897;50.322;18.892;2022-09-13T10:06:39;57746.92;;;-145.38;56.47
61939;BME280;47897;50.322;18.892;2022-09-13T10:09:14;57731.20;;;-145.38;56.35
61939;BME280;47897;50.322;18.892;2022-09-13T10:14:45;57738.85;;;-145.38;56.65
61939;BME280;47897;50.322;18.892;2022-09-13T10:17:24;57752.02;;;-145.38;56.57
61939;BME280;47897;50.322;18.892;2022-09-13T10:20:17;57744.79;;;-145.38;57.05
61939;BME280;47897;50.322;18.892;2022-09-13T10:26:05;57733.32;;;-145.38;56.41
61939;BME280;47897;50.322;18.892;2022-09-13T10:28:34;57759.67;;;-145.38;55.59
61939;BME280;47897;50.322;18.892;2022-09-13T10:31:09;57747.34;;;-145.38;55.05
61939;BME280;47897;50.322;18.892;2022-09-13T10:36:22;57740.97;;;-145.38;52.71
61939;BME280;47897;50.322;18.892;2022-09-13T10:38:57;57751.59;;;-145.38;54.11
61939;BME280;47897;50.322;18.892;2022-09-13T10:41:30;57744.37;;;-145.38;54.02
61939;BME280;47897;50.322;18.892;2022-09-13T10:44:00;57753.29;;;-145.38;54.63
61939;BME280;47897;50.322;18.892;2022-09-13T10:46:31;57729.49;;;-145.38;53.83
61939;BME280;47897;50.322;18.892;2022-09-13T10:49:00;57736.72;;;-145.38;54.05
61939;BME280;47897;50.322;18.892;2022-09-13T10:56:41;57724.82;;;-145.38;51.30
61939;BME280;47897;50.322;18.892;2022-09-13T10:59:23;57726.09;;;-145.38;51.83
61939;BME280;47897;50.322;18.892;2022-09-13T11:05:29;57744.36;;;-145.38;51.84
61939;BME280;47897;50.322;18.892;2022-09-13T11:08:14;57741.82;;;-145.38;51.85
61939;BME280;47897;50.322;18.892;2022-09-13T11:14:05;57744.37;;;-145.38;50.01
61939;BME280;47897;50.322;18.892;2022-09-13T11:30:14;57719.73;;;-145.38;48.61
61939;BME280;47897;50.322;18.892;2022-09-13T11:32:50;57723.55;;;-145.38;49.56
61939;BME280;47897;50.322;18.892;2022-09-13T11:41:12;57732.89;;;-145.38;48.80
61939;BME280;47897;50.322;18.892;2022-09-13T11:55:27;57728.22;;;-145.38;48.29
61939;BME280;47897;50.322;18.892;2022-09-13T11:57:55;57723.97;;;-145.38;48.24
61939;BME280;47897;50.322;18.892;2022-09-13T12:00:28;57726.95;;;-145.38;48.79
61939;BME280;47897;50.322;18.892;2022-09-13T12:05:33;57727.38;;;-145.38;48.30
61939;BME280;47897;50.322;18.892;2022-09-13T12:08:15;57730.77;;;-145.38;48.96
61939;BME280;47897;50.322;18.892;2022-09-13T12:11:03;57723.97;;;-145.38;49.48
61939;BME280;47897;50.322;18.892;2022-09-13T12:13:53;57735.02;;;-145.38;49.57
61939;BME280;47897;50.322;18.892;2022-09-13T12:16:25;57744.37;;;-145.38;49.77
61939;BME280;47897;50.322;18.892;2022-09-13T12:18:57;57732.89;;;-145.38;50.33
61939;BME280;47897;50.322;18.892;2022-09-13T12:21:29;57723.12;;;-145.38;50.75
61939;BME280;47897;50.322;18.892;2022-09-13T12:24:07;57738.85;;;-145.38;50.74
61939;BME280;47897;50.322;18.892;2022-09-13T12:30:14;57723.13;;;-145.38;51.09
61939;BME280;47897;50.322;18.892;2022-09-13T12:32:32;57736.72;;;-145.38;51.66
61939;BME280;47897;50.322;18.892;2022-09-13T12:35:07;57736.29;;;-145.38;51.46
61939;BME280;47897;50.322;18.892;2022-09-13T12:51:31;57736.30;;;-145.38;51.85
61939;BME280;47897;50.322;18.892;2022-09-13T12:54:26;57743.09;;;-145.38;51.71
61939;BME280;47897;50.322;18.892;2022-09-13T12:57:30;57734.59;;;-145.38;51.90
61939;BME280;47897;50.322;18.892;2022-09-13T13:00:32;57733.74;;;-145.38;51.87
61939;BME280;47897;50.322;18.892;2022-09-13T13:05:39;57728.64;;;-145.38;51.91
61939;BME280;47897;50.322;18.892;2022-09-13T13:08:26;57744.79;;;-145.38;51.74
61939;BME280;47897;50.322;18.892;2022-09-13T13:11:09;57742.67;;;-145.38;52.17
61939;BME280;47897;50.322;18.892;2022-09-13T13:13:45;57751.59;;;-145.38;52.11
61939;BME280;47897;50.322;18.892;2022-09-13T13:16:36;57722.70;;;-145.38;52.31
61939;BME280;47897;50.322;18.892;2022-09-13T13:19:32;57723.13;;;-145.38;52.34
61939;BME280;47897;50.322;18.892;2022-09-13T13:42:26;57749.04;;;-145.38;53.20
61939;BME280;47897;50.322;18.892;2022-09-13T13:49:52;57741.82;;;-145.38;53.42
61939;BME280;47897;50.322;18.892;2022-09-13T13:52:59;57747.34;;;-145.38;53.19
61939;BME280;47897;50.322;18.892;2022-09-13T13:55:43;57745.22;;;-145.38;53.18
61939;BME280;47897;50.322;18.892;2022-09-13T13:58:43;57746.92;;;-145.38;52.98
61939;BME280;47897;50.322;18.892;2022-09-13T14:01:24;57738.84;;;-145.38;52.53
61939;BME280;47897;50.322;18.892;2022-09-13T14:12:17;57739.70;;;-145.38;51.85
61939;BME280;47897;50.322;18.892;2022-09-13T14:14:58;57726.09;;;-145.38;51.75
61939;BME280;47897;50.322;18.892;2022-09-13T14:20:33;57743.09;;;-145.38;51.49
61939;BME280;47897;50.322;18.892;2022-09-13T14:23:17;57735.45;;;-145.38;50.83
61939;BME280;47897;50.322;18.892;2022-09-13T14:25:45;57726.95;;;-145.38;51.29
61939;BME280;47897;50.322;18.892;2022-09-13T14:28:16;57716.75;;;-145.38;50.90
61939;BME280;47897;50.322;18.892;2022-09-13T14:30:46;57717.18;;;-145.38;51.68
61939;BME280;47897;50.322;18.892;2022-09-13T14:33:22;57741.39;;;-145.38;51.53
61939;BME280;47897;50.322;18.892;2022-09-13T14:36:00;57747.34;;;-145.38;51.08
61939;BME280;47897;50.322;18.892;2022-09-13T14:38:29;57735.88;;;-145.38;51.23
61939;BME280;47897;50.322;18.892;2022-09-13T14:41:13;57730.34;;;-145.38;50.62
61939;BME280;47897;50.322;18.892;2022-09-13T14:43:42;57729.49;;;-145.38;50.83
61939;BME280;47897;50.322;18.892;2022-09-13T14:46:15;57723.55;;;-145.38;50.75
61939;BME280;47897;50.322;18.892;2022-09-13T14:49:23;57727.38;;;-145.38;51.16
61939;BME280;47897;50.322;18.892;2022-09-13T14:51:56;57737.15;;;-145.38;51.71
61939;BME280;47897;50.322;18.892;2022-09-13T14:54:39;57740.12;;;-145.38;51.67
61939;BME280;47897;50.322;18.892;2022-09-13T15:00:18;57752.44;;;-145.38;51.97
61939;BME280;47897;50.322;18.892;2022-09-13T15:02:51;57733.32;;;-145.38;51.60
61939;BME280;47897;50.322;18.892;2022-09-13T15:05:21;57728.65;;;-145.38;51.39
61939;BME280;47897;50.322;18.892;2022-09-13T15:07:49;57731.20;;;-145.38;51.37
61939;BME280;47897;50.322;18.892;2022-09-13T15:17:58;57741.82;;;-145.38;51.87
61939;BME280;47897;50.322;18.892;2022-09-13T15:20:28;57738.84;;;-145.38;51.63
61939;BME280;47897;50.322;18.892;2022-09-13T15:22:56;57740.97;;;-145.38;51.57
61939;BME280;47897;50.322;18.892;2022-09-13T15:25:28;57739.27;;;-145.38;51.58
61939;BME280;47897;50.322;18.892;2022-09-13T15:27:56;57717.18;;;-145.38;51.60
61939;BME280;47897;50.322;18.892;2022-09-13T15:30:26;57727.38;;;-145.38;51.61
61939;BME280;47897;50.322;18.892;2022-09-13T15:35:40;57734.17;;;-145.38;51.39
61939;BME280;47897;50.322;18.892;2022-09-13T15:38:15;57753.29;;;-145.38;51.64
61939;BME280;47897;50.322;18.892;2022-09-13T15:40:45;57730.77;;;-145.38;51.60
61939;BME280;47897;50.322;18.892;2022-09-13T15:43:13;57729.49;;;-145.38;51.88
61939;BME280;47897;50.322;18.892;2022-09-13T15:45:40;57751.17;;;-145.38;51.98
61939;BME280;47897;50.322;18.892;2022-09-13T15:48:20;57730.34;;;-145.38;52.05
61939;BME280;47897;50.322;18.892;2022-09-13T15:51:07;57735.87;;;-145.38;52.24
61939;BME280;47897;50.322;18.892;2022-09-13T15:53:36;57737.99;;;-145.38;52.29
61939;BME280;47897;50.322;18.892;2022-09-13T15:56:05;57737.99;;;-145.38;52.76
61939;BME280;47897;50.322;18.892;2022-09-13T15:58:33;57722.70;;;-145.38;52.79
61939;BME280;47897;50.322;18.892;2022-09-13T16:01:02;57726.95;;;-145.38;53.02
61939;BME280;47897;50.322;18.892;2022-09-13T16:03:30;57736.29;;;-145.38;53.36
61939;BME280;47897;50.322;18.892;2022-09-13T16:05:57;57727.79;;;-145.38;53.39
61939;BME280;47897;50.322;18.892;2022-09-13T16:08:24;57729.93;;;-145.38;53.41
61939;BME280;47897;50.322;18.892;2022-09-13T16:10:51;57735.87;;;-145.38;53.43
61939;BME280;47897;50.322;18.892;2022-09-13T16:13:19;57745.64;;;-145.38;53.55
61939;BME280;47897;50.322;18.892;2022-09-13T16:15:46;57729.50;;;-145.38;53.73
61939;BME280;47897;50.322;18.892;2022-09-13T16:18:14;57723.98;;;-145.38;53.86
61939;BME280;47897;50.322;18.892;2022-09-13T16:20:44;57740.97;;;-145.38;53.90
61939;BME280;47897;50.322;18.892;2022-09-13T16:23:11;57725.68;;;-145.38;54.03
61939;BME280;47897;50.322;18.892;2022-09-13T16:25:38;57736.29;;;-145.38;54.06
61939;BME280;47897;50.322;18.892;2022-09-13T16:28:06;57729.92;;;-145.38;54.13
61939;BME280;47897;50.322;18.892;2022-09-13T16:30:33;57721.43;;;-145.38;54.21
61939;BME280;47897;50.322;18.892;2022-09-13T16:33:00;57728.23;;;-145.38;54.36
61939;BME280;47897;50.322;18.892;2022-09-13T16:35:29;57736.30;;;-145.38;54.44
61939;BME280;47897;50.322;18.892;2022-09-13T16:37:57;57736.72;;;-145.38;54.63
61939;BME280;47897;50.322;18.892;2022-09-13T16:40:24;57733.32;;;-145.38;54.67